Terminal Aerodrome Forecast
Issued by NWS Caribou, ME

Home | Current Version | Previous Version | Text Only | Print | Product List | Glossary On
Versions: 1 2 3 4 5 6 7 8 9 10 11 12 13 14 15 16 17 18 19 20 21
000
FTUS41 KCAR 302324
TAFBGR
TAF
KBGR 302324Z 3100/3124 18012G22KT P6SM BKN120 OVC200 WS020/22045KT
     FM310400 20012KT 5SM -SHRA BR SCT010 OVC025
     FM310700 24008KT 2SM RA BR OVC007
     FM311200 36015G25KT 4SM -SHRA OVC007
     FM311400 35012G22KT P6SM OVC020=

USA.gov is the U.S. government's official web portal to all federal, state and local government web resources and services.